Capricorn — PDAY — position and weather

sailwx.info

Track history (hours):
 
Tides and Currents Weather Stations Pressure Air Temp Water Temp Dewpoint Dewpoint Depression Visibility Wind Speed Wind Dir Waves Ship Positions

Capricorn

Last reported at 2018-Jun-20 23:04 UTC. Time now 2018-Jun-21 13:50 UTC.
Position N 43°31' W 003°45'.

Length 118 m; beam 15 m.

Type: Cargo ship. MMSI: 244050844.

Date/timePositionNaut miles runAvg speedWind from/ knotsBaromVisibWave heightAir tempDewpointWater temp
2018-Jun-20 23:04N 43°31' W 003°45'112.0
2018-Jun-20 23:00N 43°32' W 003°46'612.0
2018-Jun-20 22:31N 43°38' W 003°48'612.0
2018-Jun-20 21:59N 43°44' W 003°50'16411.9
2018-Jun-20 08:10N 46°21' W 004°56'311.8
2018-Jun-20 07:57N 46°24' W 004°57'511.9
2018-Jun-20 07:29N 46°29' W 004°59'611.8
2018-Jun-20 07:00N 46°34' W 005°01'611.4
2018-Jun-20 06:27N 46°40' W 005°04'511.1
2018-Jun-20 06:00N 46°45' W 005°06'911.6
2018-Jun-20 05:15N 46°54' W 005°09'312.4
2018-Jun-20 05:00N 46°57' W 005°10'612.1
2018-Jun-20 04:30N 47°03' W 005°13'611.3
2018-Jun-20 03:58N 47°08' W 005°16'611.2
2018-Jun-20 03:26N 47°14' W 005°18'711.5
2018-Jun-20 02:51N 47°20' W 005°21'811.6
2018-Jun-20 02:11N 47°28' W 005°24'3212.4
2018-Jun-19 23:38N 47°58' W 005°38'512.3
2018-Jun-19 23:15N 48°03' W 005°40'4710.9
2018-Jun-19 18:55N 48°50' W 005°48'510.4
2018-Jun-19 18:29N 48°53' W 005°43'610.9
2018-Jun-19 17:58N 48°56' W 005°36'711.2
2018-Jun-19 17:22N 48°60' W 005°27'411.5
2018-Jun-19 17:01N 49°02' W 005°22'611.9
2018-Jun-19 16:30N 49°05' W 005°14'9311.2
2018-Jun-19 08:08N 49°52' W 003°10'811.8
2018-Jun-19 07:30N 49°55' W 002°60'3613.2
2018-Jun-19 04:46N 49°57' W 002°04'414.4
2018-Jun-19 04:29N 49°56' W 001°58'714.2
2018-Jun-19 04:00N 49°54' W 001°47'813.2
2018-Jun-19 03:23N 49°52' W 001°35'512.4
2018-Jun-19 02:59N 49°51' W 001°28'611.7
2018-Jun-19 02:27N 49°49' W 001°18'610.1
2018-Jun-19 01:50N 49°47' W 001°09'5 9.9
2018-Jun-19 01:22N 49°45' W 001°03'3 9.7
2018-Jun-19 01:00N 49°44' W 000°58'5 9.9
2018-Jun-19 00:30N 49°42' W 000°51'5 9.6
2018-Jun-19 00:00N 49°40' W 000°44'5 9.6
2018-Jun-18 23:30N 49°38' W 000°37'5 9.5
2018-Jun-18 23:00N 49°36' W 000°30'5 9.7
2018-Jun-18 22:30N 49°34' W 000°23'510.5
2018-Jun-18 22:00N 49°32' W 000°16'510.9
2018-Jun-18 21:30N 49°30' W 000°08'611.0
2018-Jun-18 21:00N 49°28' W 000°01'510.2
2018-Jun-18 20:30N 49°26' E 000°07'713.2
2018-Jun-18 20:00N 49°26' E 000°17'713.5
2018-Jun-18 19:30N 49°28' E 000°27'5 9.7
2018-Jun-18 19:01N 49°27' E 000°34'510.2
2018-Jun-18 18:30N 49°30' E 000°40'4 8.2
2018-Jun-18 18:00N 49°30' E 000°46'510.6
2018-Jun-18 17:30N 49°24' E 000°49'3 6.1
2018-Jun-18 17:00N 49°27' E 000°51'3 6.4
2018-Jun-18 16:30N 49°28' E 000°56'5 9.8
2018-Jun-18 16:00N 49°23' E 000°55'3 6.4
2018-Jun-18 15:30N 49°22' E 000°60'4 7.5
2018-Jun-18 15:00N 49°25' E 001°01'2 2.8
2018-Jun-18 14:28N 49°26' E 001°03'0 0.0
2018-Jun-18 13:58N 49°26' E 001°03'0 0.0
2018-Jun-18 13:28N 49°26' E 001°03'0 0.0
2018-Jun-18 12:58N 49°26' E 001°03'0 0.0
2018-Jun-18 12:28N 49°26' E 001°03'0 0.0
2018-Jun-18 11:58N 49°26' E 001°03'0 0.0
2018-Jun-18 11:25N 49°26' E 001°03'0 0.0
2018-Jun-18 10:58N 49°26' E 001°03'0 0.0
2018-Jun-18 10:28N 49°26' E 001°03'0 0.0
2018-Jun-18 09:58N 49°26' E 001°03'0 0.0
2018-Jun-18 09:28N 49°26' E 001°03'0 0.0
2018-Jun-18 08:58N 49°26' E 001°03'0 0.0
2018-Jun-18 08:28N 49°26' E 001°03'0 0.0
2018-Jun-18 07:58N 49°26' E 001°03'0 0.0
2018-Jun-18 07:28N 49°26' E 001°03'0 0.0
2018-Jun-18 06:58N 49°26' E 001°03'0 0.0
2018-Jun-18 06:28N 49°26' E 001°03'0 0.0
2018-Jun-18 05:58N 49°26' E 001°03'0 0.0
2018-Jun-18 05:28N 49°26' E 001°03'0 0.0
2018-Jun-18 04:52N 49°26' E 001°03'0 0.0
2018-Jun-18 04:28N 49°26' E 001°03'0 0.0
2018-Jun-18 03:58N 49°26' E 001°03'0 0.0
2018-Jun-18 03:28N 49°26' E 001°03'0 0.0
2018-Jun-18 02:58N 49°26' E 001°03'0 0.0
2018-Jun-18 02:28N 49°26' E 001°03'0 0.0
2018-Jun-18 01:58N 49°26' E 001°03'0 0.0
2018-Jun-18 01:28N 49°26' E 001°03'0 0.0
2018-Jun-18 00:58N 49°26' E 001°03'0 0.0
2018-Jun-18 00:22N 49°26' E 001°03'0 0.0
2018-Jun-17 23:58N 49°26' E 001°03'0 0.0
2018-Jun-17 23:28N 49°26' E 001°03'0 0.0
2018-Jun-17 22:58N 49°26' E 001°03'0 0.0
2018-Jun-17 22:28N 49°26' E 001°03'0 0.0
2018-Jun-17 21:55N 49°26' E 001°03'0 0.0
2018-Jun-17 21:19N 49°26' E 001°03'0 0.0
2018-Jun-17 20:55N 49°26' E 001°03'0 0.0
2018-Jun-17 20:28N 49°26' E 001°03'0 0.0
2018-Jun-17 19:58N 49°26' E 001°03'0 0.0
2018-Jun-17 19:28N 49°26' E 001°03'0 0.0
2018-Jun-17 18:58N 49°26' E 001°03'0 0.0
2018-Jun-17 18:28N 49°26' E 001°03'0 0.0
2018-Jun-17 17:58N 49°26' E 001°03'0 0.0
2018-Jun-17 17:28N 49°26' E 001°03'0 0.0
2018-Jun-17 16:58N 49°26' E 001°03'0 0.0
2018-Jun-17 16:28N 49°26' E 001°03'0 0.0
2018-Jun-17 15:58N 49°26' E 001°03'0 0.0
2018-Jun-17 15:25N 49°26' E 001°03'0 0.0
2018-Jun-17 14:58N 49°26' E 001°03'0 0.0
2018-Jun-17 14:28N 49°26' E 001°03'0 0.8
2018-Jun-17 14:00N 49°26' E 001°02'3 6.8
2018-Jun-17 13:31N 49°23' E 001°01'4 7.4
2018-Jun-17 13:00N 49°22' E 000°55'713.9
2018-Jun-17 12:31N 49°29' E 000°56'5 9.8
2018-Jun-17 12:00N 49°24' E 000°52'4 8.3
2018-Jun-17 11:30N 49°28' E 000°49'511.0
2018-Jun-17 11:00N 49°31' E 000°42'613.0
2018-Jun-17 10:30N 49°26' E 000°37'612.0
2018-Jun-17 10:00N 49°29' E 000°29'714.6
2018-Jun-17 09:31N 49°26' E 000°19'714.5
2018-Jun-17 09:00N 49°26' E 000°08'713.7
2018-Jun-17 08:30N 49°28' W 000°02'612.0
2018-Jun-17 08:00N 49°30' W 000°11'611.0
2018-Jun-17 07:30N 49°32' W 000°19'510.7
2018-Jun-17 07:00N 49°34' W 000°27'510.4
2018-Jun-17 06:30N 49°36' W 000°34'510.0
2018-Jun-17 06:00N 49°38' W 000°41'5 9.4
2018-Jun-17 05:30N 49°39' W 000°48'5 9.0
2018-Jun-17 05:00N 49°41' W 000°55'4 8.8
2018-Jun-17 04:30N 49°42' W 001°01'4 8.2
2018-Jun-17 04:00N 49°44' W 001°07'4 8.1
2018-Jun-17 03:30N 49°45' W 001°13'4 7.2
2018-Jun-17 03:00N 49°46' W 001°18'4 7.1
2018-Jun-17 02:30N 49°46' W 001°24'4 7.5
2018-Jun-17 01:58N 49°47' W 001°30'4 8.7
2018-Jun-17 01:30N 49°48' W 001°36'5 9.7
2018-Jun-17 00:58N 49°49' W 001°44'511.4
2018-Jun-17 00:29N 49°50' W 001°52'3312.6
2018-Jun-16 21:51N 49°50' W 002°44'412.5
2018-Jun-16 21:31N 49°50' W 002°50'712.3
2018-Jun-16 20:56N 49°50' W 003°02'512.4
2018-Jun-16 20:30N 49°50' W 003°10'612.1
2018-Jun-16 20:00N 49°51' W 003°19'612.0
2018-Jun-16 19:30N 49°51' W 003°28'811.9
2018-Jun-16 18:51N 49°51' W 003°40'223 8.1
2018-Jun-15 15:13N 53°33' W 004°13'414.7
2018-Jun-15 14:56N 53°33' W 004°06'614.1
2018-Jun-15 14:30N 53°33' W 003°56'713.7
2018-Jun-15 14:00N 53°33' W 003°44'713.4
2018-Jun-15 13:30N 53°33' W 003°33'713.1
2018-Jun-15 12:59N 53°32' W 003°22'510.3
2018-Jun-15 12:30N 53°31' W 003°14'510.8
2018-Jun-15 12:00N 53°30' W 003°05'510.4
2018-Jun-15 11:30N 53°25' W 003°01'4 7.5
2018-Jun-15 10:59N 53°21' W 002°59'0 0.0
2018-Jun-15 10:29N 53°21' W 002°59'0 0.0
2018-Jun-15 09:59N 53°21' W 002°59'0 0.0
2018-Jun-15 09:26N 53°21' W 002°59'0 0.0
2018-Jun-15 08:59N 53°21' W 002°59'0 0.0
2018-Jun-15 08:26N 53°21' W 002°59'0 0.0
2018-Jun-15 07:56N 53°21' W 002°59'0 0.0
2018-Jun-15 07:29N 53°21' W 002°59'0 0.0
2018-Jun-15 06:59N 53°21' W 002°59'0 0.0
2018-Jun-15 06:23N 53°21' W 002°59'0 0.0
2018-Jun-15 05:59N 53°21' W 002°59'0 0.0
2018-Jun-15 05:29N 53°21' W 002°59'0 0.0
2018-Jun-15 04:59N 53°21' W 002°59'0 0.0
2018-Jun-15 04:29N 53°21' W 002°59'0 0.0
2018-Jun-15 03:59N 53°21' W 002°59'0 0.0
2018-Jun-15 03:29N 53°21' W 002°59'0 0.0
2018-Jun-15 02:59N 53°21' W 002°59'0 0.0
2018-Jun-15 02:29N 53°21' W 002°59'0 0.0
2018-Jun-15 01:59N 53°21' W 002°59'0 0.0
2018-Jun-15 01:29N 53°21' W 002°59'0 0.0
2018-Jun-15 00:59N 53°21' W 002°59'0 0.0
2018-Jun-15 00:26N 53°21' W 002°59'0 0.0
2018-Jun-14 23:59N 53°21' W 002°59'0 0.0
2018-Jun-14 23:29N 53°21' W 002°59'0 0.0
2018-Jun-14 22:59N 53°21' W 002°59'0 0.0
2018-Jun-14 22:23N 53°21' W 002°59'0 0.0
2018-Jun-14 21:56N 53°21' W 002°59'0 0.0
2018-Jun-14 21:26N 53°21' W 002°59'0 0.0
2018-Jun-14 20:59N 53°21' W 002°59'0 0.0
2018-Jun-14 20:26N 53°21' W 002°59'0 0.0
2018-Jun-14 19:59N 53°21' W 002°59'0 0.0
2018-Jun-14 19:29N 53°21' W 002°59'0 0.0
2018-Jun-14 18:56N 53°21' W 002°59'0 0.0
2018-Jun-14 18:29N 53°21' W 002°59'0 0.0
2018-Jun-14 17:59N 53°21' W 002°59'0 0.0
2018-Jun-14 17:26N 53°21' W 002°59'0 0.0
2018-Jun-14 16:59N 53°21' W 002°59'0 0.0
2018-Jun-14 16:29N 53°21' W 002°59'0 0.0
2018-Jun-14 15:59N 53°21' W 002°59'0 0.0
2018-Jun-14 15:29N 53°21' W 002°59'0 0.0
2018-Jun-14 14:59N 53°21' W 002°59'0 0.0
2018-Jun-14 14:29N 53°21' W 002°59'0 0.0
2018-Jun-14 13:59N 53°21' W 002°59'0 0.0
2018-Jun-14 13:29N 53°21' W 002°59'0 0.0
2018-Jun-14 12:59N 53°21' W 002°59'0 0.0
2018-Jun-14 12:29N 53°21' W 002°59'0 0.0
2018-Jun-14 11:59N 53°21' W 002°59'0 0.0
2018-Jun-14 11:29N 53°21' W 002°59'0 0.0
2018-Jun-14 10:59N 53°21' W 002°59'0 0.0
2018-Jun-14 10:29N 53°21' W 002°59'0 0.0
2018-Jun-14 09:56N 53°21' W 002°59'0 0.0
2018-Jun-14 09:29N 53°21' W 002°59'0 0.0
2018-Jun-14 08:59N 53°21' W 002°59'0 0.0
2018-Jun-14 08:29N 53°21' W 002°59'0 0.0
2018-Jun-14 07:59N 53°21' W 002°59'0 0.0
2018-Jun-14 07:29N 53°21' W 002°59'0 0.0
2018-Jun-14 06:59N 53°21' W 002°59'0 0.0
2018-Jun-14 06:29N 53°21' W 002°59'0 0.0
2018-Jun-14 05:59N 53°21' W 002°59'0 0.0
2018-Jun-14 05:26N 53°21' W 002°59'0 0.0
2018-Jun-14 04:59N 53°21' W 002°59'0 0.0
2018-Jun-14 04:29N 53°21' W 002°59'0 0.0
2018-Jun-14 03:59N 53°21' W 002°59'0 0.0
2018-Jun-14 03:29N 53°21' W 002°59'0 0.0
2018-Jun-14 02:59N 53°21' W 002°59'0 0.0
2018-Jun-14 02:26N 53°21' W 002°59'0 0.0
2018-Jun-14 01:59N 53°21' W 002°59'0 0.0
2018-Jun-14 01:29N 53°21' W 002°59'0 0.0
2018-Jun-14 00:53N 53°21' W 002°59'0 0.0
2018-Jun-14 00:29N 53°21' W 002°59'0 0.0
2018-Jun-13 23:59N 53°21' W 002°59'0 0.0
2018-Jun-13 23:29N 53°21' W 002°59'0 0.0
2018-Jun-13 22:56N 53°21' W 002°59'0 0.0
2018-Jun-13 22:29N 53°21' W 002°59'0 0.0
2018-Jun-13 21:59N 53°21' W 002°59'0 0.0
2018-Jun-13 21:29N 53°21' W 002°59'0 0.0
2018-Jun-13 20:53N 53°21' W 002°59'0 0.0
2018-Jun-13 20:26N 53°21' W 002°59'0 0.0
2018-Jun-13 19:59N 53°21' W 002°59'0 0.0
2018-Jun-13 19:29N 53°21' W 002°59'0 0.0
2018-Jun-13 18:47N 53°21' W 002°59'0 0.0
2018-Jun-13 18:20N 53°21' W 002°59'0 0.0
2018-Jun-13 17:59N 53°21' W 002°59'0 0.0
2018-Jun-13 17:29N 53°21' W 002°59'0 0.0
2018-Jun-13 16:56N 53°21' W 002°59'0 0.0
2018-Jun-13 16:29N 53°21' W 002°59'0 0.0
2018-Jun-13 15:59N 53°21' W 002°59'0 0.0
2018-Jun-13 15:29N 53°21' W 002°59'0 0.0
2018-Jun-13 14:59N 53°21' W 002°59'0 0.0
2018-Jun-13 14:29N 53°21' W 002°59'0 0.0
2018-Jun-13 13:44N 53°21' W 002°59'0 0.0
2018-Jun-13 13:29N 53°21' W 002°59'0 0.0
2018-Jun-13 12:59N 53°21' W 002°59'0 0.0
2018-Jun-13 12:29N 53°21' W 002°59'0 0.0
2018-Jun-13 11:59N 53°21' W 002°59'0 0.0
2018-Jun-13 11:29N 53°21' W 002°59'0 0.0
2018-Jun-13 10:59N 53°21' W 002°59'0 0.0
2018-Jun-13 10:29N 53°21' W 002°59'0 0.0
2018-Jun-13 09:59N 53°21' W 002°59'0 0.0
2018-Jun-13 09:26N 53°21' W 002°59'0 0.0
2018-Jun-13 08:59N 53°21' W 002°59'0 0.0
2018-Jun-13 08:26N 53°21' W 002°59'0 0.0
2018-Jun-13 07:56N 53°21' W 002°59'0 0.0
2018-Jun-13 07:20N 53°21' W 002°59'0 0.0
2018-Jun-13 06:59N 53°21' W 002°59'0 0.0
2018-Jun-13 06:26N 53°21' W 002°59'0 0.0
2018-Jun-13 05:59N 53°21' W 002°59'0 0.0
2018-Jun-13 05:30N 53°21' W 002°59'0 0.0
2018-Jun-13 05:00N 53°21' W 002°59'0 0.0
2018-Jun-13 04:30N 53°21' W 002°59'0 0.0
2018-Jun-13 04:00N 53°21' W 002°59'0 0.0
2018-Jun-13 03:30N 53°21' W 002°59'0 0.0
2018-Jun-13 03:00N 53°21' W 002°59'0 0.0
2018-Jun-13 02:30N 53°21' W 002°59'0 0.0
2018-Jun-13 02:00N 53°21' W 002°59'0 0.0
2018-Jun-13 01:30N 53°21' W 002°59'0 0.0
2018-Jun-13 01:00N 53°21' W 002°59'0 0.0
2018-Jun-13 00:30N 53°21' W 002°59'0 0.0
2018-Jun-13 00:00N 53°21' W 002°59'0 0.0
2018-Jun-12 23:30N 53°21' W 002°59'0 0.0
2018-Jun-12 23:00N 53°21' W 002°59'0 0.0
2018-Jun-12 22:30N 53°21' W 002°59'0 0.0
2018-Jun-12 22:00N 53°21' W 002°59'1 1.2
2018-Jun-12 21:30N 53°22' W 002°59'4 8.1
2018-Jun-12 21:00N 53°26' W 003°01'5 9.6
2018-Jun-12 20:30N 53°30' W 003°06'4 7.5
2018-Jun-12 20:00N 53°31' W 003°11'5 9.0
2018-Jun-12 19:30N 53°31' W 003°19'4 7.0
2018-Jun-12 19:00N 53°30' W 003°24'2 3.0
2018-Jun-12 18:30N 53°29' W 003°24'0 0.0
2018-Jun-12 17:54N 53°29' W 003°24'0 0.0
2018-Jun-12 17:30N 53°29' W 003°24'0 0.1
2018-Jun-12 17:00N 53°28' W 003°24'0 0.2
2018-Jun-12 16:30N 53°29' W 003°24'0 0.0
2018-Jun-12 16:00N 53°29' W 003°24'0 0.0
2018-Jun-12 15:30N 53°29' W 003°24'0 0.0
2018-Jun-12 15:00N 53°29' W 003°24'0 0.0
2018-Jun-12 14:30N 53°29' W 003°24'0 0.0
2018-Jun-12 14:00N 53°29' W 003°24'0 0.0
2018-Jun-12 13:30N 53°29' W 003°24'0 0.0
2018-Jun-12 13:00N 53°29' W 003°24'0 0.0
2018-Jun-12 12:30N 53°29' W 003°24'0 0.0
2018-Jun-12 11:57N 53°29' W 003°24'0 0.0
2018-Jun-12 11:24N 53°29' W 003°24'0 0.0
2018-Jun-12 11:00N 53°29' W 003°24'0 0.1
2018-Jun-12 10:30N 53°28' W 003°24'0 0.0
2018-Jun-12 10:00N 53°28' W 003°24'0 0.1
2018-Jun-12 09:27N 53°28' W 003°24'0 0.1
2018-Jun-12 09:00N 53°29' W 003°24'0 0.0
2018-Jun-12 08:30N 53°29' W 003°24'0 0.0
2018-Jun-12 07:57N 53°29' W 003°24'0 0.0
2018-Jun-12 07:27N 53°29' W 003°24'0 0.0
2018-Jun-12 07:00N 53°29' W 003°24'0 0.0
2018-Jun-12 06:30N 53°29' W 003°24'0 0.1
2018-Jun-12 05:57N 53°29' W 003°24'0 0.1
2018-Jun-12 05:30N 53°29' W 003°24'0 0.0
2018-Jun-12 05:00N 53°29' W 003°24'0 0.0
2018-Jun-12 04:30N 53°29' W 003°24'0 0.1
2018-Jun-12 03:57N 53°29' W 003°24'0 0.1
2018-Jun-12 03:27N 53°29' W 003°24'0 0.1
2018-Jun-12 02:57N 53°29' W 003°24'0 0.0
2018-Jun-12 02:30N 53°29' W 003°24'0 0.0
2018-Jun-12 02:00N 53°29' W 003°24'0 0.0
2018-Jun-12 01:27N 53°29' W 003°24'0 0.0
2018-Jun-12 00:57N 53°29' W 003°24'0 0.0
2018-Jun-12 00:27N 53°29' W 003°24'0 0.0
2018-Jun-11 23:54N 53°29' W 003°24'0 0.1
2018-Jun-11 23:27N 53°28' W 003°24'0 0.1
2018-Jun-11 23:00N 53°28' W 003°24'0 0.1
2018-Jun-11 22:30N 53°28' W 003°24'0 0.1
2018-Jun-11 22:00N 53°28' W 003°24'0 0.0
2018-Jun-11 21:30N 53°28' W 003°24'0 0.1
2018-Jun-11 21:00N 53°28' W 003°24'0 0.0
2018-Jun-11 20:24N 53°28' W 003°24'0 0.1
2018-Jun-11 20:00N 53°28' W 003°24'0 0.0
2018-Jun-11 19:21N 53°29' W 003°24'0 0.0
2018-Jun-11 19:00N 53°29' W 003°24'0 0.0
2018-Jun-11 18:30N 53°29' W 003°24'0 0.0
2018-Jun-11 18:00N 53°28' W 003°24'0 0.1
2018-Jun-11 17:30N 53°29' W 003°24'0 0.0
2018-Jun-11 16:54N 53°29' W 003°24'0 0.0
2018-Jun-11 16:30N 53°29' W 003°24'0 0.1
2018-Jun-11 16:00N 53°29' W 003°24'0 0.2
2018-Jun-11 15:30N 53°29' W 003°24'0 0.0
2018-Jun-11 15:00N 53°29' W 003°24'0 0.0
2018-Jun-11 14:30N 53°29' W 003°24'0 0.0
2018-Jun-11 14:00N 53°29' W 003°24'0 0.0
2018-Jun-11 13:21N 53°29' W 003°24'0 0.0
2018-Jun-11 13:00N 53°29' W 003°24'0 0.0
2018-Jun-11 12:24N 53°29' W 003°24'0 0.0
2018-Jun-11 12:00N 53°29' W 003°24'0 0.0
2018-Jun-11 11:30N 53°29' W 003°24'0 0.0
2018-Jun-11 11:00N 53°29' W 003°24'0 0.0
2018-Jun-11 10:30N 53°28' W 003°24'0 0.1
2018-Jun-11 10:00N 53°28' W 003°24'0 0.0
2018-Jun-11 09:30N 53°28' W 003°24'0 0.1
2018-Jun-11 09:00N 53°28' W 003°24'0 0.1
2018-Jun-11 08:30N 53°28' W 003°24'0 0.0
2018-Jun-11 07:54N 53°28' W 003°24'0 0.1
2018-Jun-11 07:30N 53°28' W 003°24'0 0.0
2018-Jun-11 07:00N 53°28' W 003°24'0 0.0
2018-Jun-11 06:30N 53°28' W 003°24'0 0.0
2018-Jun-11 06:00N 53°28' W 003°24'0 0.0
2018-Jun-11 05:30N 53°28' W 003°24'0 0.0
2018-Jun-11 05:00N 53°28' W 003°24'0 0.0
2018-Jun-11 04:30N 53°28' W 003°24'0 0.0
2018-Jun-11 04:00N 53°28' W 003°24'0 0.2
2018-Jun-11 03:30N 53°29' W 003°24'0 0.1
2018-Jun-11 03:00N 53°29' W 003°24'0 0.0
2018-Jun-11 02:30N 53°29' W 003°24'0 0.0
2018-Jun-11 02:00N 53°29' W 003°24'0 0.0
2018-Jun-11 01:15N 53°29' W 003°24'0 0.0
2018-Jun-11 01:00N 53°28' W 003°24'0 0.0
2018-Jun-11 00:30N 53°28' W 003°24'0 0.0
2018-Jun-11 00:00N 53°29' W 003°24'0 0.0
2018-Jun-10 23:30N 53°29' W 003°24'  
Track history (hours):
 
Tides and Currents Weather Stations Pressure Air Temp Water Temp Dewpoint Dewpoint Depression Visibility Wind Speed Wind Dir Waves Ship Positions

Capricorn

Last reported at 2018-Jun-20 23:04 UTC. Time now 2018-Jun-21 13:50 UTC.
Position N 43°31' W 003°45'.

Length 118 m; beam 15 m.

Type: Cargo ship. MMSI: 244050844.

Date/timePositionNaut miles runAvg speedWind from/ knotsBaromVisibWave heightAir tempDewpointWater temp
2018-Jun-20 23:04N 43°31' W 003°45'112.0
2018-Jun-20 23:00N 43°32' W 003°46'612.0
2018-Jun-20 22:31N 43°38' W 003°48'612.0
2018-Jun-20 21:59N 43°44' W 003°50'16411.9
2018-Jun-20 08:10N 46°21' W 004°56'311.8
2018-Jun-20 07:57N 46°24' W 004°57'511.9
2018-Jun-20 07:29N 46°29' W 004°59'611.8
2018-Jun-20 07:00N 46°34' W 005°01'611.4
2018-Jun-20 06:27N 46°40' W 005°04'511.1
2018-Jun-20 06:00N 46°45' W 005°06'911.6
2018-Jun-20 05:15N 46°54' W 005°09'312.4
2018-Jun-20 05:00N 46°57' W 005°10'612.1
2018-Jun-20 04:30N 47°03' W 005°13'611.3
2018-Jun-20 03:58N 47°08' W 005°16'611.2
2018-Jun-20 03:26N 47°14' W 005°18'711.5
2018-Jun-20 02:51N 47°20' W 005°21'811.6
2018-Jun-20 02:11N 47°28' W 005°24'3212.4
2018-Jun-19 23:38N 47°58' W 005°38'512.3
2018-Jun-19 23:15N 48°03' W 005°40'4710.9
2018-Jun-19 18:55N 48°50' W 005°48'510.4
2018-Jun-19 18:29N 48°53' W 005°43'610.9
2018-Jun-19 17:58N 48°56' W 005°36'711.2
2018-Jun-19 17:22N 48°60' W 005°27'411.5
2018-Jun-19 17:01N 49°02' W 005°22'611.9
2018-Jun-19 16:30N 49°05' W 005°14'9311.2
2018-Jun-19 08:08N 49°52' W 003°10'811.8
2018-Jun-19 07:30N 49°55' W 002°60'3613.2
2018-Jun-19 04:46N 49°57' W 002°04'414.4
2018-Jun-19 04:29N 49°56' W 001°58'714.2
2018-Jun-19 04:00N 49°54' W 001°47'813.2
2018-Jun-19 03:23N 49°52' W 001°35'512.4
2018-Jun-19 02:59N 49°51' W 001°28'611.7
2018-Jun-19 02:27N 49°49' W 001°18'610.1
2018-Jun-19 01:50N 49°47' W 001°09'5 9.9
2018-Jun-19 01:22N 49°45' W 001°03'3 9.7
2018-Jun-19 01:00N 49°44' W 000°58'5 9.9
2018-Jun-19 00:30N 49°42' W 000°51'5 9.6
2018-Jun-19 00:00N 49°40' W 000°44'5 9.6
2018-Jun-18 23:30N 49°38' W 000°37'5 9.5
2018-Jun-18 23:00N 49°36' W 000°30'5 9.7
2018-Jun-18 22:30N 49°34' W 000°23'510.5
2018-Jun-18 22:00N 49°32' W 000°16'510.9
2018-Jun-18 21:30N 49°30' W 000°08'611.0
2018-Jun-18 21:00N 49°28' W 000°01'510.2
2018-Jun-18 20:30N 49°26' E 000°07'713.2
2018-Jun-18 20:00N 49°26' E 000°17'713.5
2018-Jun-18 19:30N 49°28' E 000°27'5 9.7
2018-Jun-18 19:01N 49°27' E 000°34'510.2
2018-Jun-18 18:30N 49°30' E 000°40'4 8.2
2018-Jun-18 18:00N 49°30' E 000°46'510.6
2018-Jun-18 17:30N 49°24' E 000°49'3 6.1
2018-Jun-18 17:00N 49°27' E 000°51'3 6.4
2018-Jun-18 16:30N 49°28' E 000°56'5 9.8
2018-Jun-18 16:00N 49°23' E 000°55'3 6.4
2018-Jun-18 15:30N 49°22' E 000°60'4 7.5
2018-Jun-18 15:00N 49°25' E 001°01'2 2.8
2018-Jun-18 14:28N 49°26' E 001°03'0 0.0
2018-Jun-18 13:58N 49°26' E 001°03'0 0.0
2018-Jun-18 13:28N 49°26' E 001°03'0 0.0
2018-Jun-18 12:58N 49°26' E 001°03'0 0.0
2018-Jun-18 12:28N 49°26' E 001°03'0 0.0
2018-Jun-18 11:58N 49°26' E 001°03'0 0.0
2018-Jun-18 11:25N 49°26' E 001°03'0 0.0
2018-Jun-18 10:58N 49°26' E 001°03'0 0.0
2018-Jun-18 10:28N 49°26' E 001°03'0 0.0
2018-Jun-18 09:58N 49°26' E 001°03'0 0.0
2018-Jun-18 09:28N 49°26' E 001°03'0 0.0
2018-Jun-18 08:58N 49°26' E 001°03'0 0.0
2018-Jun-18 08:28N 49°26' E 001°03'0 0.0
2018-Jun-18 07:58N 49°26' E 001°03'0 0.0
2018-Jun-18 07:28N 49°26' E 001°03'0 0.0
2018-Jun-18 06:58N 49°26' E 001°03'0 0.0
2018-Jun-18 06:28N 49°26' E 001°03'0 0.0
2018-Jun-18 05:58N 49°26' E 001°03'0 0.0
2018-Jun-18 05:28N 49°26' E 001°03'0 0.0
2018-Jun-18 04:52N 49°26' E 001°03'0 0.0
2018-Jun-18 04:28N 49°26' E 001°03'0 0.0
2018-Jun-18 03:58N 49°26' E 001°03'0 0.0
2018-Jun-18 03:28N 49°26' E 001°03'0 0.0
2018-Jun-18 02:58N 49°26' E 001°03'0 0.0
2018-Jun-18 02:28N 49°26' E 001°03'0 0.0
2018-Jun-18 01:58N 49°26' E 001°03'0 0.0
2018-Jun-18 01:28N 49°26' E 001°03'0 0.0
2018-Jun-18 00:58N 49°26' E 001°03'0 0.0
2018-Jun-18 00:22N 49°26' E 001°03'0 0.0
2018-Jun-17 23:58N 49°26' E 001°03'0 0.0
2018-Jun-17 23:28N 49°26' E 001°03'0 0.0
2018-Jun-17 22:58N 49°26' E 001°03'0 0.0
2018-Jun-17 22:28N 49°26' E 001°03'0 0.0
2018-Jun-17 21:55N 49°26' E 001°03'0 0.0
2018-Jun-17 21:19N 49°26' E 001°03'0 0.0
2018-Jun-17 20:55N 49°26' E 001°03'0 0.0
2018-Jun-17 20:28N 49°26' E 001°03'0 0.0
2018-Jun-17 19:58N 49°26' E 001°03'0 0.0
2018-Jun-17 19:28N 49°26' E 001°03'0 0.0
2018-Jun-17 18:58N 49°26' E 001°03'0 0.0
2018-Jun-17 18:28N 49°26' E 001°03'0 0.0
2018-Jun-17 17:58N 49°26' E 001°03'0 0.0
2018-Jun-17 17:28N 49°26' E 001°03'0 0.0
2018-Jun-17 16:58N 49°26' E 001°03'0 0.0
2018-Jun-17 16:28N 49°26' E 001°03'0 0.0
2018-Jun-17 15:58N 49°26' E 001°03'0 0.0
2018-Jun-17 15:25N 49°26' E 001°03'0 0.0
2018-Jun-17 14:58N 49°26' E 001°03'0 0.0
2018-Jun-17 14:28N 49°26' E 001°03'0 0.8
2018-Jun-17 14:00N 49°26' E 001°02'3 6.8
2018-Jun-17 13:31N 49°23' E 001°01'4 7.4
2018-Jun-17 13:00N 49°22' E 000°55'713.9
2018-Jun-17 12:31N 49°29' E 000°56'5 9.8
2018-Jun-17 12:00N 49°24' E 000°52'4 8.3
2018-Jun-17 11:30N 49°28' E 000°49'511.0
2018-Jun-17 11:00N 49°31' E 000°42'613.0
2018-Jun-17 10:30N 49°26' E 000°37'612.0
2018-Jun-17 10:00N 49°29' E 000°29'714.6
2018-Jun-17 09:31N 49°26' E 000°19'714.5
2018-Jun-17 09:00N 49°26' E 000°08'713.7
2018-Jun-17 08:30N 49°28' W 000°02'612.0
2018-Jun-17 08:00N 49°30' W 000°11'611.0
2018-Jun-17 07:30N 49°32' W 000°19'510.7
2018-Jun-17 07:00N 49°34' W 000°27'510.4
2018-Jun-17 06:30N 49°36' W 000°34'510.0
2018-Jun-17 06:00N 49°38' W 000°41'5 9.4
2018-Jun-17 05:30N 49°39' W 000°48'5 9.0
2018-Jun-17 05:00N 49°41' W 000°55'4 8.8
2018-Jun-17 04:30N 49°42' W 001°01'4 8.2
2018-Jun-17 04:00N 49°44' W 001°07'4 8.1
2018-Jun-17 03:30N 49°45' W 001°13'4 7.2
2018-Jun-17 03:00N 49°46' W 001°18'4 7.1
2018-Jun-17 02:30N 49°46' W 001°24'4 7.5
2018-Jun-17 01:58N 49°47' W 001°30'4 8.7
2018-Jun-17 01:30N 49°48' W 001°36'5 9.7
2018-Jun-17 00:58N 49°49' W 001°44'511.4
2018-Jun-17 00:29N 49°50' W 001°52'3312.6
2018-Jun-16 21:51N 49°50' W 002°44'412.5
2018-Jun-16 21:31N 49°50' W 002°50'712.3
2018-Jun-16 20:56N 49°50' W 003°02'512.4
2018-Jun-16 20:30N 49°50' W 003°10'612.1
2018-Jun-16 20:00N 49°51' W 003°19'612.0
2018-Jun-16 19:30N 49°51' W 003°28'811.9
2018-Jun-16 18:51N 49°51' W 003°40'223 8.1
2018-Jun-15 15:13N 53°33' W 004°13'414.7
2018-Jun-15 14:56N 53°33' W 004°06'614.1
2018-Jun-15 14:30N 53°33' W 003°56'713.7
2018-Jun-15 14:00N 53°33' W 003°44'713.4
2018-Jun-15 13:30N 53°33' W 003°33'713.1
2018-Jun-15 12:59N 53°32' W 003°22'510.3
2018-Jun-15 12:30N 53°31' W 003°14'510.8
2018-Jun-15 12:00N 53°30' W 003°05'510.4
2018-Jun-15 11:30N 53°25' W 003°01'4 7.5
2018-Jun-15 10:59N 53°21' W 002°59'0 0.0
2018-Jun-15 10:29N 53°21' W 002°59'0 0.0
2018-Jun-15 09:59N 53°21' W 002°59'0 0.0
2018-Jun-15 09:26N 53°21' W 002°59'0 0.0
2018-Jun-15 08:59N 53°21' W 002°59'0 0.0
2018-Jun-15 08:26N 53°21' W 002°59'0 0.0
2018-Jun-15 07:56N 53°21' W 002°59'0 0.0
2018-Jun-15 07:29N 53°21' W 002°59'0 0.0
2018-Jun-15 06:59N 53°21' W 002°59'0 0.0
2018-Jun-15 06:23N 53°21' W 002°59'0 0.0
2018-Jun-15 05:59N 53°21' W 002°59'0 0.0
2018-Jun-15 05:29N 53°21' W 002°59'0 0.0
2018-Jun-15 04:59N 53°21' W 002°59'0 0.0
2018-Jun-15 04:29N 53°21' W 002°59'0 0.0
2018-Jun-15 03:59N 53°21' W 002°59'0 0.0
2018-Jun-15 03:29N 53°21' W 002°59'0 0.0
2018-Jun-15 02:59N 53°21' W 002°59'0 0.0
2018-Jun-15 02:29N 53°21' W 002°59'0 0.0
2018-Jun-15 01:59N 53°21' W 002°59'0 0.0
2018-Jun-15 01:29N 53°21' W 002°59'0 0.0
2018-Jun-15 00:59N 53°21' W 002°59'0 0.0
2018-Jun-15 00:26N 53°21' W 002°59'0 0.0
2018-Jun-14 23:59N 53°21' W 002°59'0 0.0
2018-Jun-14 23:29N 53°21' W 002°59'0 0.0
2018-Jun-14 22:59N 53°21' W 002°59'0 0.0
2018-Jun-14 22:23N 53°21' W 002°59'0 0.0
2018-Jun-14 21:56N 53°21' W 002°59'0 0.0
2018-Jun-14 21:26N 53°21' W 002°59'0 0.0
2018-Jun-14 20:59N 53°21' W 002°59'0 0.0
2018-Jun-14 20:26N 53°21' W 002°59'0 0.0
2018-Jun-14 19:59N 53°21' W 002°59'0 0.0
2018-Jun-14 19:29N 53°21' W 002°59'0 0.0
2018-Jun-14 18:56N 53°21' W 002°59'0 0.0
2018-Jun-14 18:29N 53°21' W 002°59'0 0.0
2018-Jun-14 17:59N 53°21' W 002°59'0 0.0
2018-Jun-14 17:26N 53°21' W 002°59'0 0.0
2018-Jun-14 16:59N 53°21' W 002°59'0 0.0
2018-Jun-14 16:29N 53°21' W 002°59'0 0.0
2018-Jun-14 15:59N 53°21' W 002°59'0 0.0
2018-Jun-14 15:29N 53°21' W 002°59'0 0.0
2018-Jun-14 14:59N 53°21' W 002°59'0 0.0
2018-Jun-14 14:29N 53°21' W 002°59'0 0.0
2018-Jun-14 13:59N 53°21' W 002°59'0 0.0
2018-Jun-14 13:29N 53°21' W 002°59'0 0.0
2018-Jun-14 12:59N 53°21' W 002°59'0 0.0
2018-Jun-14 12:29N 53°21' W 002°59'0 0.0
2018-Jun-14 11:59N 53°21' W 002°59'0 0.0
2018-Jun-14 11:29N 53°21' W 002°59'0 0.0
2018-Jun-14 10:59N 53°21' W 002°59'0 0.0
2018-Jun-14 10:29N 53°21' W 002°59'0 0.0
2018-Jun-14 09:56N 53°21' W 002°59'0 0.0
2018-Jun-14 09:29N 53°21' W 002°59'0 0.0
2018-Jun-14 08:59N 53°21' W 002°59'0 0.0
2018-Jun-14 08:29N 53°21' W 002°59'0 0.0
2018-Jun-14 07:59N 53°21' W 002°59'0 0.0
2018-Jun-14 07:29N 53°21' W 002°59'0 0.0
2018-Jun-14 06:59N 53°21' W 002°59'0 0.0
2018-Jun-14 06:29N 53°21' W 002°59'0 0.0
2018-Jun-14 05:59N 53°21' W 002°59'0 0.0
2018-Jun-14 05:26N 53°21' W 002°59'0 0.0
2018-Jun-14 04:59N 53°21' W 002°59'0 0.0
2018-Jun-14 04:29N 53°21' W 002°59'0 0.0
2018-Jun-14 03:59N 53°21' W 002°59'0 0.0
2018-Jun-14 03:29N 53°21' W 002°59'0 0.0
2018-Jun-14 02:59N 53°21' W 002°59'0 0.0
2018-Jun-14 02:26N 53°21' W 002°59'0 0.0
2018-Jun-14 01:59N 53°21' W 002°59'0 0.0
2018-Jun-14 01:29N 53°21' W 002°59'0 0.0
2018-Jun-14 00:53N 53°21' W 002°59'0 0.0
2018-Jun-14 00:29N 53°21' W 002°59'0 0.0
2018-Jun-13 23:59N 53°21' W 002°59'0 0.0
2018-Jun-13 23:29N 53°21' W 002°59'0 0.0
2018-Jun-13 22:56N 53°21' W 002°59'0 0.0
2018-Jun-13 22:29N 53°21' W 002°59'0 0.0
2018-Jun-13 21:59N 53°21' W 002°59'0 0.0
2018-Jun-13 21:29N 53°21' W 002°59'0 0.0
2018-Jun-13 20:53N 53°21' W 002°59'0 0.0
2018-Jun-13 20:26N 53°21' W 002°59'0 0.0
2018-Jun-13 19:59N 53°21' W 002°59'0 0.0
2018-Jun-13 19:29N 53°21' W 002°59'0 0.0
2018-Jun-13 18:47N 53°21' W 002°59'0 0.0
2018-Jun-13 18:20N 53°21' W 002°59'0 0.0
2018-Jun-13 17:59N 53°21' W 002°59'0 0.0
2018-Jun-13 17:29N 53°21' W 002°59'0 0.0
2018-Jun-13 16:56N 53°21' W 002°59'0 0.0
2018-Jun-13 16:29N 53°21' W 002°59'0 0.0
2018-Jun-13 15:59N 53°21' W 002°59'0 0.0
2018-Jun-13 15:29N 53°21' W 002°59'0 0.0
2018-Jun-13 14:59N 53°21' W 002°59'0 0.0
2018-Jun-13 14:29N 53°21' W 002°59'0 0.0
2018-Jun-13 13:44N 53°21' W 002°59'0 0.0
2018-Jun-13 13:29N 53°21' W 002°59'0 0.0
2018-Jun-13 12:59N 53°21' W 002°59'0 0.0
2018-Jun-13 12:29N 53°21' W 002°59'0 0.0
2018-Jun-13 11:59N 53°21' W 002°59'0 0.0
2018-Jun-13 11:29N 53°21' W 002°59'0 0.0
2018-Jun-13 10:59N 53°21' W 002°59'0 0.0
2018-Jun-13 10:29N 53°21' W 002°59'0 0.0
2018-Jun-13 09:59N 53°21' W 002°59'0 0.0
2018-Jun-13 09:26N 53°21' W 002°59'0 0.0
2018-Jun-13 08:59N 53°21' W 002°59'0 0.0
2018-Jun-13 08:26N 53°21' W 002°59'0 0.0
2018-Jun-13 07:56N 53°21' W 002°59'0 0.0
2018-Jun-13 07:20N 53°21' W 002°59'0 0.0
2018-Jun-13 06:59N 53°21' W 002°59'0 0.0
2018-Jun-13 06:26N 53°21' W 002°59'0 0.0
2018-Jun-13 05:59N 53°21' W 002°59'0 0.0
2018-Jun-13 05:30N 53°21' W 002°59'0 0.0
2018-Jun-13 05:00N 53°21' W 002°59'0 0.0
2018-Jun-13 04:30N 53°21' W 002°59'0 0.0
2018-Jun-13 04:00N 53°21' W 002°59'0 0.0
2018-Jun-13 03:30N 53°21' W 002°59'0 0.0
2018-Jun-13 03:00N 53°21' W 002°59'0 0.0
2018-Jun-13 02:30N 53°21' W 002°59'0 0.0
2018-Jun-13 02:00N 53°21' W 002°59'0 0.0
2018-Jun-13 01:30N 53°21' W 002°59'0 0.0
2018-Jun-13 01:00N 53°21' W 002°59'0 0.0
2018-Jun-13 00:30N 53°21' W 002°59'0 0.0
2018-Jun-13 00:00N 53°21' W 002°59'0 0.0
2018-Jun-12 23:30N 53°21' W 002°59'0 0.0
2018-Jun-12 23:00N 53°21' W 002°59'0 0.0
2018-Jun-12 22:30N 53°21' W 002°59'0 0.0
2018-Jun-12 22:00N 53°21' W 002°59'1 1.2
2018-Jun-12 21:30N 53°22' W 002°59'4 8.1
2018-Jun-12 21:00N 53°26' W 003°01'5 9.6
2018-Jun-12 20:30N 53°30' W 003°06'4 7.5
2018-Jun-12 20:00N 53°31' W 003°11'5 9.0
2018-Jun-12 19:30N 53°31' W 003°19'4 7.0
2018-Jun-12 19:00N 53°30' W 003°24'2 3.0
2018-Jun-12 18:30N 53°29' W 003°24'0 0.0
2018-Jun-12 17:54N 53°29' W 003°24'0 0.0
2018-Jun-12 17:30N 53°29' W 003°24'0 0.1
2018-Jun-12 17:00N 53°28' W 003°24'0 0.2
2018-Jun-12 16:30N 53°29' W 003°24'0 0.0
2018-Jun-12 16:00N 53°29' W 003°24'0 0.0
2018-Jun-12 15:30N 53°29' W 003°24'0 0.0
2018-Jun-12 15:00N 53°29' W 003°24'0 0.0
2018-Jun-12 14:30N 53°29' W 003°24'0 0.0
2018-Jun-12 14:00N 53°29' W 003°24'0 0.0
2018-Jun-12 13:30N 53°29' W 003°24'0 0.0
2018-Jun-12 13:00N 53°29' W 003°24'0 0.0
2018-Jun-12 12:30N 53°29' W 003°24'0 0.0
2018-Jun-12 11:57N 53°29' W 003°24'0 0.0
2018-Jun-12 11:24N 53°29' W 003°24'0 0.0
2018-Jun-12 11:00N 53°29' W 003°24'0 0.1
2018-Jun-12 10:30N 53°28' W 003°24'0 0.0
2018-Jun-12 10:00N 53°28' W 003°24'0 0.1
2018-Jun-12 09:27N 53°28' W 003°24'0 0.1
2018-Jun-12 09:00N 53°29' W 003°24'0 0.0
2018-Jun-12 08:30N 53°29' W 003°24'0 0.0
2018-Jun-12 07:57N 53°29' W 003°24'0 0.0
2018-Jun-12 07:27N 53°29' W 003°24'0 0.0
2018-Jun-12 07:00N 53°29' W 003°24'0 0.0
2018-Jun-12 06:30N 53°29' W 003°24'0 0.1
2018-Jun-12 05:57N 53°29' W 003°24'0 0.1
2018-Jun-12 05:30N 53°29' W 003°24'0 0.0
2018-Jun-12 05:00N 53°29' W 003°24'0 0.0
2018-Jun-12 04:30N 53°29' W 003°24'0 0.1
2018-Jun-12 03:57N 53°29' W 003°24'0 0.1
2018-Jun-12 03:27N 53°29' W 003°24'0 0.1
2018-Jun-12 02:57N 53°29' W 003°24'0 0.0
2018-Jun-12 02:30N 53°29' W 003°24'0 0.0
2018-Jun-12 02:00N 53°29' W 003°24'0 0.0
2018-Jun-12 01:27N 53°29' W 003°24'0 0.0
2018-Jun-12 00:57N 53°29' W 003°24'0 0.0
2018-Jun-12 00:27N 53°29' W 003°24'0 0.0
2018-Jun-11 23:54N 53°29' W 003°24'0 0.1
2018-Jun-11 23:27N 53°28' W 003°24'0 0.1
2018-Jun-11 23:00N 53°28' W 003°24'0 0.1
2018-Jun-11 22:30N 53°28' W 003°24'0 0.1
2018-Jun-11 22:00N 53°28' W 003°24'0 0.0
2018-Jun-11 21:30N 53°28' W 003°24'0 0.1
2018-Jun-11 21:00N 53°28' W 003°24'0 0.0
2018-Jun-11 20:24N 53°28' W 003°24'0 0.1
2018-Jun-11 20:00N 53°28' W 003°24'0 0.0
2018-Jun-11 19:21N 53°29' W 003°24'0 0.0
2018-Jun-11 19:00N 53°29' W 003°24'0 0.0
2018-Jun-11 18:30N 53°29' W 003°24'0 0.0
2018-Jun-11 18:00N 53°28' W 003°24'0 0.1
2018-Jun-11 17:30N 53°29' W 003°24'0 0.0
2018-Jun-11 16:54N 53°29' W 003°24'0 0.0
2018-Jun-11 16:30N 53°29' W 003°24'0 0.1
2018-Jun-11 16:00N 53°29' W 003°24'0 0.2
2018-Jun-11 15:30N 53°29' W 003°24'0 0.0
2018-Jun-11 15:00N 53°29' W 003°24'0 0.0
2018-Jun-11 14:30N 53°29' W 003°24'0 0.0
2018-Jun-11 14:00N 53°29' W 003°24'0 0.0
2018-Jun-11 13:21N 53°29' W 003°24'0 0.0
2018-Jun-11 13:00N 53°29' W 003°24'0 0.0
2018-Jun-11 12:24N 53°29' W 003°24'0 0.0
2018-Jun-11 12:00N 53°29' W 003°24'0 0.0
2018-Jun-11 11:30N 53°29' W 003°24'0 0.0
2018-Jun-11 11:00N 53°29' W 003°24'0 0.0
2018-Jun-11 10:30N 53°28' W 003°24'0 0.1
2018-Jun-11 10:00N 53°28' W 003°24'0 0.0
2018-Jun-11 09:30N 53°28' W 003°24'0 0.1
2018-Jun-11 09:00N 53°28' W 003°24'0 0.1
2018-Jun-11 08:30N 53°28' W 003°24'0 0.0
2018-Jun-11 07:54N 53°28' W 003°24'0 0.1
2018-Jun-11 07:30N 53°28' W 003°24'0 0.0
2018-Jun-11 07:00N 53°28' W 003°24'0 0.0
2018-Jun-11 06:30N 53°28' W 003°24'0 0.0
2018-Jun-11 06:00N 53°28' W 003°24'0 0.0
2018-Jun-11 05:30N 53°28' W 003°24'0 0.0
2018-Jun-11 05:00N 53°28' W 003°24'0 0.0
2018-Jun-11 04:30N 53°28' W 003°24'0 0.0
2018-Jun-11 04:00N 53°28' W 003°24'0 0.2
2018-Jun-11 03:30N 53°29' W 003°24'0 0.1
2018-Jun-11 03:00N 53°29' W 003°24'0 0.0
2018-Jun-11 02:30N 53°29' W 003°24'0 0.0
2018-Jun-11 02:00N 53°29' W 003°24'0 0.0
2018-Jun-11 01:15N 53°29' W 003°24'0 0.0
2018-Jun-11 01:00N 53°28' W 003°24'0 0.0
2018-Jun-11 00:30N 53°28' W 003°24'0 0.0
2018-Jun-11 00:00N 53°29' W 003°24'0 0.0
2018-Jun-10 23:30N 53°29' W 003°24'  

Dump ship's entire track history